createdAt,value
2019-02-12T00:01:55.822Z,0.60
2019-02-12T00:04:23.066Z,0.50
2019-02-12T00:06:50.470Z,0.50
2019-02-12T00:09:17.705Z,0.50
2019-02-12T00:11:44.976Z,0.50
2019-02-12T00:14:12.208Z,0.50
2019-02-12T00:16:39.407Z,0.50
2019-02-12T00:19:06.540Z,0.50
2019-02-12T00:21:33.802Z,0.60
2019-02-12T00:24:01.069Z,0.60
2019-02-12T00:26:28.341Z,0.60
2019-02-12T00:28:55.683Z,0.70
2019-02-12T00:31:22.950Z,0.60
2019-02-12T00:33:50.216Z,0.60
2019-02-12T00:36:17.356Z,0.70
2019-02-12T00:38:44.653Z,0.70
2019-02-12T00:41:11.903Z,0.70
2019-02-12T00:43:39.305Z,0.60
2019-02-12T00:46:06.545Z,0.60
2019-02-12T00:48:33.799Z,0.60
2019-02-12T00:51:01.058Z,0.60
2019-02-12T00:53:28.326Z,0.60
2019-02-12T00:55:55.612Z,0.60
2019-02-12T00:58:22.842Z,0.60
2019-02-12T01:00:50.077Z,0.60
2019-02-12T01:03:17.260Z,0.60
2019-02-12T01:05:44.397Z,0.60
2019-02-12T01:08:11.663Z,0.60
2019-02-12T01:10:39.001Z,0.60
2019-02-12T01:13:06.255Z,0.60
2019-02-12T01:15:33.421Z,0.50
2019-02-12T01:18:00.656Z,0.50
2019-02-12T01:20:27.933Z,0.50
2019-02-12T01:22:55.270Z,0.60
2019-02-12T01:25:22.634Z,0.50
2019-02-12T01:27:49.902Z,0.50
2019-02-12T01:30:17.236Z,0.50
2019-02-12T01:32:44.580Z,0.50
2019-02-12T01:35:11.942Z,0.50
2019-02-12T01:37:39.186Z,0.40
2019-02-12T01:40:08.740Z,0.50
2019-02-12T01:42:35.925Z,0.40
2019-02-12T01:45:03.505Z,0.40
2019-02-12T01:47:30.663Z,0.50
2019-02-12T01:49:57.918Z,0.50
2019-02-12T01:52:25.198Z,0.60
2019-02-12T01:54:52.389Z,0.60
2019-02-12T01:57:19.615Z,0.60
2019-02-12T01:59:46.905Z,0.70
2019-02-12T02:02:14.169Z,0.70
2019-02-12T02:04:41.441Z,0.70
2019-02-12T02:07:08.818Z,0.70
2019-02-12T02:09:36.073Z,0.80
2019-02-12T02:12:03.232Z,0.80
2019-02-12T02:14:30.518Z,0.90
2019-02-12T02:16:57.810Z,0.80
2019-02-12T02:19:25.175Z,0.90
2019-02-12T02:21:52.456Z,0.90
2019-02-12T02:24:19.705Z,0.90
2019-02-12T02:26:46.982Z,0.90
2019-02-12T02:29:14.125Z,0.90
2019-02-12T02:31:41.290Z,0.90
2019-02-12T02:34:08.602Z,0.90
2019-02-12T02:36:35.854Z,0.90
2019-02-12T02:39:04.385Z,0.90
2019-02-12T02:41:31.600Z,0.90
2019-02-12T02:43:58.875Z,1.00
2019-02-12T02:46:26.141Z,0.90
2019-02-12T02:48:53.500Z,1.00
2019-02-12T02:51:20.647Z,1.00
2019-02-12T02:53:47.899Z,1.00
2019-02-12T02:56:15.146Z,1.00
2019-02-12T02:58:42.275Z,1.00
2019-02-12T03:01:09.510Z,1.00
2019-02-12T03:03:36.774Z,1.00
2019-02-12T03:06:04.055Z,1.00
2019-02-12T03:08:31.327Z,1.00
2019-02-12T03:10:58.599Z,1.00
2019-02-12T03:13:25.849Z,1.00
2019-02-12T03:15:53.150Z,1.00
2019-02-12T03:18:20.385Z,1.00
2019-02-12T03:20:47.648Z,1.00
2019-02-12T03:23:14.874Z,1.00
2019-02-12T03:25:42.216Z,1.00
2019-02-12T03:28:09.353Z,1.00
2019-02-12T03:30:36.666Z,1.00
2019-02-12T03:33:04.020Z,1.00
2019-02-12T03:35:31.267Z,1.00
2019-02-12T03:37:58.426Z,1.00
2019-02-12T03:40:25.689Z,1.00
2019-02-12T03:42:52.989Z,1.00
2019-02-12T03:45:20.329Z,1.00
2019-02-12T03:47:47.602Z,1.00
2019-02-12T03:50:14.854Z,1.00
2019-02-12T03:52:42.024Z,1.00
2019-02-12T03:55:10.284Z,1.00
2019-02-12T03:57:38.631Z,1.00
2019-02-12T04:00:08.058Z,1.00
2019-02-12T04:02:35.330Z,1.00
2019-02-12T04:07:39.949Z,1.00
2019-02-12T04:10:07.232Z,1.00
2019-02-12T04:12:34.598Z,0.90
2019-02-12T04:15:01.753Z,0.90
2019-02-12T04:17:29.137Z,0.90
2019-02-12T04:19:56.394Z,0.90
2019-02-12T04:22:23.684Z,0.90
2019-02-12T04:24:50.837Z,0.90
2019-02-12T04:27:18.128Z,0.90
2019-02-12T04:29:45.499Z,1.00
2019-02-12T04:32:12.852Z,1.00
2019-02-12T04:34:40.163Z,1.00
2019-02-12T04:37:07.443Z,1.00
2019-02-12T04:39:34.733Z,1.00
2019-02-12T04:42:01.997Z,1.10
2019-02-12T04:44:29.266Z,1.10
2019-02-12T04:46:56.521Z,1.00
2019-02-12T04:49:23.831Z,1.00
2019-02-12T04:51:51.003Z,1.00
2019-02-12T04:54:18.278Z,1.00
2019-02-12T04:56:45.572Z,1.00
2019-02-12T04:59:13.914Z,1.00
2019-02-12T05:01:41.101Z,1.00
2019-02-12T05:04:08.511Z,1.00
2019-02-12T05:06:35.855Z,1.00
2019-02-12T05:09:19.866Z,1.00
2019-02-12T05:11:58.391Z,1.00
2019-02-12T05:14:25.590Z,1.00
2019-02-12T05:16:52.876Z,1.00
2019-02-12T05:19:20.184Z,1.00
2019-02-12T05:21:47.460Z,1.00
2019-02-12T05:24:14.761Z,1.00
2019-02-12T05:26:41.954Z,1.00
2019-02-12T05:29:09.234Z,1.00
2019-02-12T05:31:36.679Z,1.00
2019-02-12T05:34:03.936Z,1.00
2019-02-12T05:36:31.237Z,1.00
2019-02-12T05:38:58.466Z,1.00
2019-02-12T05:41:25.784Z,1.00
2019-02-12T05:43:53.099Z,1.00
2019-02-12T05:46:20.358Z,1.00
2019-02-12T05:48:47.607Z,1.00
2019-02-12T05:51:15.014Z,1.00
2019-02-12T05:53:42.165Z,1.00
2019-02-12T05:56:09.445Z,1.00
2019-02-12T05:58:36.749Z,1.00
2019-02-12T06:01:04.035Z,0.90
2019-02-12T06:03:31.283Z,0.90
2019-02-12T06:05:58.596Z,0.90
2019-02-12T06:08:25.873Z,0.90
2019-02-12T06:10:53.136Z,0.90
2019-02-12T06:13:20.399Z,0.80
2019-02-12T06:15:47.562Z,0.90
2019-02-12T06:18:14.874Z,0.80
2019-02-12T06:20:42.129Z,0.80
2019-02-12T06:23:09.395Z,0.80
2019-02-12T06:25:36.687Z,0.80
2019-02-12T06:28:03.982Z,0.80
2019-02-12T06:30:31.254Z,0.80
2019-02-12T06:33:06.984Z,0.90
2019-02-12T06:35:27.721Z,0.90
2019-02-12T06:37:55.007Z,0.90
2019-02-12T06:40:22.347Z,0.90
2019-02-12T06:42:49.627Z,0.90
2019-02-12T06:45:16.903Z,0.80
2019-02-12T06:47:44.271Z,0.80
2019-02-12T06:50:11.690Z,0.80
2019-02-12T06:52:38.934Z,0.80
2019-02-12T06:55:06.919Z,0.80
2019-02-12T06:57:34.195Z,0.80
2019-02-12T07:00:01.590Z,0.80
2019-02-12T07:03:07.523Z,0.80
2019-02-12T07:05:34.795Z,0.90
2019-02-12T07:08:30.809Z,0.90
2019-02-12T07:11:01.349Z,0.90
2019-02-12T07:13:53.639Z,0.90
2019-02-12T07:16:46.891Z,0.90
2019-02-12T07:19:32.734Z,0.90
2019-02-12T07:22:40.386Z,1.00
2019-02-12T07:25:47.470Z,1.00
2019-02-12T07:28:42.305Z,1.00
2019-02-12T07:31:40.322Z,1.10
2019-02-12T07:34:49.337Z,1.10
2019-02-12T07:37:58.704Z,1.10
2019-02-12T07:41:20.072Z,1.10
2019-02-12T07:44:34.771Z,1.20
2019-02-12T07:48:01.285Z,1.20
2019-02-12T07:51:05.923Z,1.10
2019-02-12T07:53:48.323Z,1.10
2019-02-12T07:57:15.454Z,1.10
2019-02-12T08:00:16.130Z,1.10
2019-02-12T08:03:13.725Z,1.10
2019-02-12T08:06:03.123Z,1.10
2019-02-12T08:09:21.283Z,1.20
2019-02-12T08:12:25.416Z,1.30
2019-02-12T08:15:21.711Z,1.40
2019-02-12T08:18:14.033Z,1.50
2019-02-12T08:21:13.241Z,1.60
2019-02-12T08:24:06.549Z,1.60
2019-02-12T08:27:28.203Z,1.60
2019-02-12T08:30:31.513Z,1.70
2019-02-12T08:33:36.217Z,1.80
2019-02-12T08:36:41.344Z,1.90
2019-02-12T08:39:31.673Z,2.00
2019-02-12T08:42:49.937Z,2.00
2019-02-12T08:46:06.770Z,2.10
2019-02-12T08:49:08.478Z,2.30
2019-02-12T08:52:13.767Z,2.30
2019-02-12T08:55:05.388Z,2.50
2019-02-12T08:57:58.024Z,2.70
2019-02-12T09:00:44.095Z,2.60
2019-02-12T09:03:48.173Z,2.70
2019-02-12T09:06:47.115Z,2.90
2019-02-12T09:09:57.747Z,3.20
2019-02-12T09:13:02.792Z,3.50
2019-02-12T09:16:14.690Z,3.30
2019-02-12T09:19:03.346Z,3.20
2019-02-12T09:22:26.520Z,3.00
2019-02-12T09:25:28.521Z,2.80
2019-02-12T09:28:11.402Z,2.60
2019-02-12T09:31:15.011Z,2.50
2019-02-12T09:34:22.308Z,2.50
2019-02-12T09:37:23.043Z,2.50
2019-02-12T09:40:01.269Z,2.60
2019-02-12T09:43:05.902Z,2.50
2019-02-12T09:46:21.070Z,2.50
2019-02-12T09:49:15.358Z,2.50
2019-02-12T09:52:23.056Z,2.50
2019-02-12T09:55:25.981Z,2.40
2019-02-12T09:58:04.423Z,2.40
2019-02-12T10:00:41.677Z,2.30
2019-02-12T10:03:23.431Z,2.40
2019-02-12T10:06:21.962Z,2.40
2019-02-12T10:09:27.975Z,2.50
2019-02-12T10:12:23.831Z,2.50
2019-02-12T10:15:20.402Z,2.50
2019-02-12T10:18:28.773Z,2.50
2019-02-12T10:21:03.728Z,2.40
2019-02-12T10:24:19.348Z,2.30
2019-02-12T10:26:43.201Z,2.40
2019-02-12T10:29:40.123Z,2.40
2019-02-12T10:32:08.654Z,2.60
2019-02-12T10:34:35.590Z,2.70
2019-02-12T10:37:02.840Z,2.80
2019-02-12T10:39:30.036Z,2.90
2019-02-12T10:41:57.271Z,3.00
2019-02-12T10:44:24.506Z,3.10
2019-02-12T10:46:51.783Z,3.20
2019-02-12T10:49:19.071Z,3.20
2019-02-12T10:51:46.415Z,3.30
2019-02-12T10:54:13.769Z,3.50
2019-02-12T10:56:41.047Z,3.80
2019-02-12T10:59:08.191Z,3.80
2019-02-12T11:01:35.482Z,3.90
2019-02-12T11:04:02.720Z,4.00
2019-02-12T11:06:29.923Z,4.10
2019-02-12T11:08:57.250Z,4.00
2019-02-12T11:11:24.410Z,3.90
2019-02-12T11:13:51.698Z,3.90
2019-02-12T11:16:18.969Z,3.80
2019-02-12T11:18:46.254Z,3.80
2019-02-12T11:21:13.544Z,3.90
2019-02-12T11:23:40.802Z,4.00
2019-02-12T11:26:08.174Z,4.50
2019-02-12T11:28:35.439Z,4.80
2019-02-12T11:31:04.607Z,5.00
2019-02-12T11:33:31.865Z,5.40
2019-02-12T11:35:59.053Z,5.70
2019-02-12T11:38:26.340Z,5.80
2019-02-12T11:40:53.610Z,5.70
2019-02-12T11:43:20.872Z,5.30
2019-02-12T11:45:48.143Z,5.20
2019-02-12T11:48:15.478Z,5.20
2019-02-12T11:50:42.722Z,5.00
2019-02-12T11:53:09.904Z,5.00
2019-02-12T11:55:37.078Z,4.90
2019-02-12T11:58:04.318Z,4.90
2019-02-12T12:00:37.461Z,5.00
2019-02-12T12:03:04.743Z,5.10
2019-02-12T12:05:32.002Z,5.20
2019-02-12T12:07:59.299Z,5.00
2019-02-12T12:10:26.549Z,5.00
2019-02-12T12:12:53.863Z,4.80
2019-02-12T12:15:21.102Z,4.70
2019-02-12T12:17:48.286Z,4.60
2019-02-12T12:20:15.531Z,4.60
2019-02-12T12:22:42.804Z,4.40
2019-02-12T12:25:10.070Z,4.20
2019-02-12T12:27:37.465Z,4.10
2019-02-12T12:30:05.229Z,4.00
2019-02-12T12:32:32.552Z,4.10
2019-02-12T12:34:59.860Z,4.30
2019-02-12T12:37:27.229Z,4.30
2019-02-12T12:39:54.422Z,4.30
2019-02-12T12:42:21.619Z,4.30
2019-02-12T12:44:48.800Z,4.30
2019-02-12T12:47:16.038Z,4.20
2019-02-12T12:49:43.321Z,4.10
2019-02-12T12:52:10.730Z,4.10
2019-02-12T12:54:37.953Z,3.90
2019-02-12T12:57:05.227Z,3.90
2019-02-12T12:59:32.413Z,3.80
2019-02-12T13:01:59.711Z,3.90
2019-02-12T13:04:26.944Z,3.80
2019-02-12T13:06:54.333Z,3.80
2019-02-12T13:09:21.615Z,3.80
2019-02-12T13:11:48.872Z,3.70
2019-02-12T13:14:16.130Z,3.70
2019-02-12T13:16:43.384Z,3.70
2019-02-12T13:19:10.722Z,3.70
2019-02-12T13:21:37.988Z,3.80
2019-02-12T13:24:05.254Z,3.80
2019-02-12T13:26:32.488Z,3.90
2019-02-12T13:28:59.769Z,4.10
2019-02-12T13:31:27.026Z,4.20
2019-02-12T13:33:54.379Z,4.10
2019-02-12T13:36:21.677Z,4.10
2019-02-12T13:38:48.940Z,4.00
2019-02-12T13:41:16.245Z,4.00
2019-02-12T13:43:43.395Z,4.00
2019-02-12T13:46:10.671Z,4.10
2019-02-12T13:48:37.942Z,4.20
2019-02-12T13:51:05.111Z,4.20
2019-02-12T13:53:32.417Z,4.20
2019-02-12T13:55:59.631Z,4.00
2019-02-12T13:58:27.061Z,3.90
2019-02-12T14:00:54.335Z,3.80
2019-02-12T14:03:22.709Z,3.70
2019-02-12T14:05:50.604Z,3.70
2019-02-12T14:08:17.965Z,3.70
2019-02-12T14:10:45.141Z,3.70
2019-02-12T14:13:12.442Z,3.70
2019-02-12T14:15:39.694Z,3.70
2019-02-12T14:18:07.053Z,3.70
2019-02-12T14:20:34.302Z,3.60
2019-02-12T14:23:01.621Z,3.60
2019-02-12T14:25:28.873Z,3.60
2019-02-12T14:27:57.943Z,3.60
2019-02-12T14:30:25.248Z,3.60
2019-02-12T14:32:52.624Z,3.50
2019-02-12T14:35:19.890Z,3.50
2019-02-12T14:37:47.062Z,3.50
2019-02-12T14:40:14.359Z,3.50
2019-02-12T14:42:41.497Z,3.60
2019-02-12T14:45:10.313Z,3.60
2019-02-12T14:47:37.584Z,3.60
2019-02-12T14:50:05.628Z,3.60
2019-02-12T14:52:32.897Z,3.60
2019-02-12T14:55:00.294Z,3.50
2019-02-12T14:57:27.621Z,3.50
2019-02-12T14:59:54.867Z,3.50
2019-02-12T15:02:22.161Z,3.50
2019-02-12T15:04:49.494Z,3.50
2019-02-12T15:07:16.787Z,3.50
2019-02-12T15:09:44.055Z,3.50
2019-02-12T15:12:11.328Z,3.50
2019-02-12T15:14:38.569Z,3.50
2019-02-12T15:17:05.827Z,3.40
2019-02-12T15:19:32.987Z,3.30
2019-02-12T15:22:00.274Z,3.30
2019-02-12T15:24:27.587Z,3.20
2019-02-12T15:26:54.932Z,3.20
2019-02-12T15:29:22.196Z,3.10
2019-02-12T15:31:49.464Z,3.10
2019-02-12T15:34:16.718Z,3.10
2019-02-12T15:36:44.027Z,3.00
2019-02-12T15:39:11.268Z,3.00
2019-02-12T15:41:38.532Z,2.90
2019-02-12T15:44:05.763Z,2.90
2019-02-12T15:46:33.020Z,2.80
2019-02-12T15:49:00.195Z,2.80
2019-02-12T15:51:27.347Z,2.80
2019-02-12T15:53:54.603Z,2.70
2019-02-12T15:56:21.889Z,2.70
2019-02-12T15:58:49.662Z,2.60
2019-02-12T16:01:17.498Z,2.50
2019-02-12T16:03:44.803Z,2.50
2019-02-12T16:06:12.035Z,2.40
2019-02-12T16:08:39.329Z,2.30
2019-02-12T16:11:06.581Z,2.30
2019-02-12T16:13:34.723Z,2.20
2019-02-12T16:16:02.913Z,2.20
2019-02-12T16:18:30.180Z,2.20
2019-02-12T16:20:57.361Z,2.10
2019-02-12T16:23:24.615Z,2.10
2019-02-12T16:25:59.208Z,2.10
2019-02-12T16:28:21.070Z,2.10
2019-02-12T16:30:48.307Z,2.00
2019-02-12T16:33:17.500Z,2.00
2019-02-12T16:35:44.722Z,1.90
2019-02-12T16:38:12.045Z,1.90
2019-02-12T16:40:39.308Z,1.90
2019-02-12T16:43:06.589Z,1.90
2019-02-12T16:45:37.850Z,1.80
2019-02-12T16:48:05.026Z,1.80
2019-02-12T16:50:32.278Z,1.70
2019-02-12T16:52:59.560Z,1.80
2019-02-12T16:55:26.821Z,1.70
2019-02-12T16:57:54.144Z,1.80
2019-02-12T17:00:21.282Z,1.70
2019-02-12T17:02:48.551Z,1.80
2019-02-12T17:05:15.843Z,1.70
2019-02-12T17:07:43.670Z,1.70
2019-02-12T17:10:10.958Z,1.70
2019-02-12T17:12:38.234Z,1.70
2019-02-12T17:15:06.555Z,1.70
2019-02-12T17:17:33.953Z,1.60
2019-02-12T17:20:01.111Z,1.60
2019-02-12T17:22:28.399Z,1.60
2019-02-12T17:24:55.741Z,1.60
2019-02-12T17:27:23.005Z,1.50
2019-02-12T17:29:50.257Z,1.50
2019-02-12T17:32:17.553Z,1.50
2019-02-12T17:34:44.814Z,1.40
2019-02-12T17:37:12.094Z,1.40
2019-02-12T17:39:39.343Z,1.40
2019-02-12T17:42:06.613Z,1.40
2019-02-12T17:44:33.869Z,1.40
2019-02-12T17:47:01.132Z,1.40
2019-02-12T17:49:28.418Z,1.30
2019-02-12T17:51:56.413Z,1.30
2019-02-12T17:54:23.666Z,1.30
2019-02-12T17:56:50.930Z,1.20
2019-02-12T17:59:21.184Z,1.20
2019-02-12T18:01:48.524Z,1.20
2019-02-12T18:04:15.780Z,1.10
2019-02-12T18:06:42.960Z,1.10
2019-02-12T18:09:10.219Z,1.10
2019-02-12T18:11:37.490Z,1.00
2019-02-12T18:14:04.820Z,1.10
2019-02-12T18:16:32.107Z,1.10
2019-02-12T18:18:59.401Z,1.00
2019-02-12T18:21:26.753Z,1.10
2019-02-12T18:23:54.098Z,1.10
2019-02-12T18:26:21.470Z,1.10
2019-02-12T18:28:48.742Z,1.10
2019-02-12T18:31:16.053Z,1.10
2019-02-12T18:33:43.431Z,1.10
2019-02-12T18:36:10.707Z,1.00
2019-02-12T18:38:38.000Z,1.00
2019-02-12T18:41:05.288Z,1.00
2019-02-12T18:43:32.526Z,1.00
2019-02-12T18:45:59.914Z,1.00
2019-02-12T18:48:27.205Z,1.00
2019-02-12T18:50:54.500Z,1.00
2019-02-12T18:53:21.830Z,1.00
2019-02-12T18:55:49.250Z,1.00
2019-02-12T18:58:18.406Z,0.90
2019-02-12T19:00:45.702Z,0.90
2019-02-12T19:03:12.996Z,1.00
2019-02-12T19:05:40.372Z,0.90
2019-02-12T19:08:07.721Z,1.00
2019-02-12T19:10:35.013Z,1.00
2019-02-12T19:13:02.275Z,1.00
2019-02-12T19:15:29.574Z,1.00
2019-02-12T19:18:03.716Z,1.00
2019-02-12T19:20:30.986Z,0.90
2019-02-12T19:22:58.291Z,0.90
2019-02-12T19:25:25.617Z,0.90
2019-02-12T19:27:52.991Z,0.90
2019-02-12T19:30:20.183Z,0.90
2019-02-12T19:32:47.447Z,0.90
2019-02-12T19:35:14.768Z,0.80
2019-02-12T19:37:42.032Z,0.80
2019-02-12T19:40:09.436Z,0.80
2019-02-12T19:42:36.637Z,0.70
2019-02-12T19:45:04.238Z,0.70
2019-02-12T19:47:31.619Z,0.60
2019-02-12T19:49:58.908Z,0.60
2019-02-12T19:52:26.254Z,0.60
2019-02-12T19:54:56.395Z,0.50
2019-02-12T19:57:23.697Z,0.40
2019-02-12T19:59:51.008Z,0.40
2019-02-12T20:02:18.247Z,0.30
2019-02-12T20:04:48.314Z,0.30
2019-02-12T20:07:15.491Z,0.30
2019-02-12T20:09:42.833Z,0.30
2019-02-12T20:12:10.145Z,0.30
2019-02-12T20:14:45.449Z,0.30
2019-02-12T20:17:12.831Z,0.30
2019-02-12T20:19:40.513Z,0.30
2019-02-12T20:22:07.892Z,0.30
2019-02-12T20:24:50.056Z,0.20
2019-02-12T20:27:17.965Z,0.20
2019-02-12T20:29:45.356Z,0.10
2019-02-12T20:32:12.845Z,0.00
2019-02-12T20:34:40.219Z,0.00
2019-02-12T20:37:07.638Z,-0.10
2019-02-12T20:39:34.914Z,-0.20
2019-02-12T20:42:02.231Z,-0.30
2019-02-12T20:44:29.915Z,-0.30
2019-02-12T20:46:57.521Z,-0.40
2019-02-12T20:49:25.008Z,-0.40
2019-02-12T20:51:52.277Z,-0.40
2019-02-12T20:54:23.341Z,-0.40
2019-02-12T20:56:51.059Z,-0.50
2019-02-12T20:59:18.375Z,-0.50
2019-02-12T21:01:45.732Z,-0.60
2019-02-12T21:04:15.569Z,-0.60
2019-02-12T21:06:47.212Z,-0.60
2019-02-12T21:09:14.508Z,-0.70
2019-02-12T21:11:41.797Z,-0.80
2019-02-12T21:14:09.063Z,-0.80
2019-02-12T21:16:36.351Z,-0.80
2019-02-12T21:19:03.608Z,-0.80
2019-02-12T21:21:30.891Z,-0.80
2019-02-12T21:23:58.210Z,-0.90
2019-02-12T21:26:25.505Z,-1.00
2019-02-12T21:28:52.686Z,-1.00
2019-02-12T21:31:19.954Z,-1.10
2019-02-12T21:33:47.340Z,-1.20
2019-02-12T21:36:14.478Z,-1.20
2019-02-12T21:38:41.770Z,-1.30
2019-02-12T21:41:09.109Z,-1.30
2019-02-12T21:43:36.356Z,-1.30
2019-02-12T21:46:03.646Z,-1.40
2019-02-12T21:48:30.893Z,-1.40
2019-02-12T21:50:58.143Z,-1.40
2019-02-12T21:53:25.385Z,-1.40
2019-02-12T21:55:52.727Z,-1.50
2019-02-12T21:58:20.018Z,-1.50
2019-02-12T22:00:47.318Z,-1.50
2019-02-12T22:03:14.572Z,-1.50
2019-02-12T22:05:41.876Z,-1.60
2019-02-12T22:08:09.150Z,-1.60
2019-02-12T22:10:36.412Z,-1.60
2019-02-12T22:13:03.654Z,-1.60
2019-02-12T22:15:30.852Z,-1.60
2019-02-12T22:17:58.068Z,-1.60
2019-02-12T22:20:25.355Z,-1.60
2019-02-12T22:22:52.584Z,-1.60
2019-02-12T22:25:21.372Z,-1.60
2019-02-12T22:27:48.789Z,-1.60
2019-02-12T22:30:17.530Z,-1.70
2019-02-12T22:32:44.796Z,-1.70
2019-02-12T22:35:12.289Z,-1.70
2019-02-12T22:37:39.641Z,-1.70
2019-02-12T22:40:07.335Z,-1.70
2019-02-12T22:42:34.605Z,-1.70
2019-02-12T22:45:01.867Z,-1.70
2019-02-12T22:47:29.153Z,-1.70
2019-02-12T22:49:56.444Z,-1.70
2019-02-12T22:52:23.750Z,-1.70
2019-02-12T22:54:51.018Z,-1.70
2019-02-12T22:57:18.185Z,-1.70
2019-02-12T22:59:45.363Z,-1.70
2019-02-12T23:02:13.233Z,-1.80
2019-02-12T23:04:40.560Z,-1.80
2019-02-12T23:07:08.067Z,-1.90
2019-02-12T23:09:35.478Z,-2.00
2019-02-12T23:12:03.146Z,-2.00
2019-02-12T23:14:30.438Z,-2.00
2019-02-12T23:16:57.729Z,-2.00
2019-02-12T23:19:25.034Z,-2.00
2019-02-12T23:21:52.458Z,-2.10
2019-02-12T23:24:19.818Z,-2.00
2019-02-12T23:26:47.002Z,-2.00
2019-02-12T23:29:14.157Z,-2.00
2019-02-12T23:31:41.461Z,-2.00
2019-02-12T23:34:08.726Z,-2.00
2019-02-12T23:36:35.985Z,-2.00
2019-02-12T23:39:04.541Z,-2.00
2019-02-12T23:41:31.845Z,-2.00
2019-02-12T23:43:59.024Z,-2.10
2019-02-12T23:46:26.293Z,-2.10
2019-02-12T23:48:53.484Z,-2.10
2019-02-12T23:51:20.739Z,-2.20
2019-02-12T23:53:48.018Z,-2.20
2019-02-12T23:56:15.316Z,-2.20
2019-02-12T23:58:42.456Z,-2.20
